Lovington, New Mexico
Current Conditions -  °F | °C
As of 1:50 PM on Monday 22 Dec 2014 (Local Time) from KHOB Reporting Station
Clear Clear  
Wind Chill: 57°   Ceiling: Unl
Heat Index: 57°   Visibility: 10mi
Dew Point: 34°   Wind: 5mph
Humidity: 41%   Direction: 50°NE
Pressure: 29.68"   Gusts: NA
Location:  32.94°N, 103.34°W
Report Text: KHOB 222050Z 05004KT 10SM SKC 14/01 A2968
Loading
Personal Weather Stations






























Interactive Weather Map New forecast layout! Learn more

10-Day Weather Forecast

Advertisements
Track Severe Weather on mobile